sensor_id;sensor_type;location;lat;lon;timestamp;pressure;altitude;pressure_sealevel;temperature;humidity
60832;BME280;46665;51.558;-0.448;2023-04-01T00:00:45;99256.06;;;8.17;100.00
60832;BME280;46665;51.558;-0.448;2023-04-01T00:03:29;99266.53;;;8.23;100.00
60832;BME280;46665;51.558;-0.448;2023-04-01T00:06:16;99259.78;;;8.21;100.00
60832;BME280;46665;51.558;-0.448;2023-04-01T00:09:01;99265.72;;;8.23;100.00
60832;BME280;46665;51.558;-0.448;2023-04-01T00:11:45;99270.63;;;8.21;100.00
60832;BME280;46665;51.558;-0.448;2023-04-01T00:14:29;99280.16;;;8.18;100.00
60832;BME280;46665;51.558;-0.448;2023-04-01T00:17:13;99280.16;;;8.18;100.00
60832;BME280;46665;51.558;-0.448;2023-04-01T00:19:57;99280.25;;;8.13;100.00
60832;BME280;46665;51.558;-0.448;2023-04-01T00:22:41;99288.66;;;8.12;100.00
60832;BME280;46665;51.558;-0.448;2023-04-01T00:25:25;99293.56;;;8.10;100.00
60832;BME280;46665;51.558;-0.448;2023-04-01T00:28:09;99293.56;;;8.10;100.00
60832;BME280;46665;51.558;-0.448;2023-04-01T00:30:53;99297.41;;;8.09;100.00
60832;BME280;46665;51.558;-0.448;2023-04-01T00:33:38;99305.81;;;8.07;100.00
60832;BME280;46665;51.558;-0.448;2023-04-01T00:36:23;99307.13;;;8.10;100.00
60832;BME280;46665;51.558;-0.448;2023-04-01T00:39:07;99311.53;;;8.06;100.00
60832;BME280;46665;51.558;-0.448;2023-04-01T00:41:51;99327.28;;;8.03;100.00
60832;BME280;46665;51.558;-0.448;2023-04-01T00:44:37;99322.38;;;8.06;100.00
60832;BME280;46665;51.558;-0.448;2023-04-01T00:47:23;99320.56;;;8.01;100.00
60832;BME280;46665;51.558;-0.448;2023-04-01T00:50:09;99327.38;;;7.98;100.00
60832;BME280;46665;51.558;-0.448;2023-04-01T00:52:53;99337.41;;;7.98;100.00
60832;BME280;46665;51.558;-0.448;2023-04-01T00:55:42;99328.44;;;7.97;100.00
60832;BME280;46665;51.558;-0.448;2023-04-01T00:58:29;99330.34;;;7.97;100.00
60832;BME280;46665;51.558;-0.448;2023-04-01T01:01:15;99334.47;;;7.94;100.00
60832;BME280;46665;51.558;-0.448;2023-04-01T01:03:59;99340.69;;;7.95;100.00
60832;BME280;46665;51.558;-0.448;2023-04-01T01:10:30;99343.69;;;7.93;100.00
60832;BME280;46665;51.558;-0.448;2023-04-01T01:16:00;99346.63;;;7.97;100.00
60832;BME280;46665;51.558;-0.448;2023-04-01T01:25:12;99352.53;;;7.99;100.00
60832;BME280;46665;51.558;-0.448;2023-04-01T01:36:58;99361.56;;;7.94;100.00
60832;BME280;46665;51.558;-0.448;2023-04-01T01:39:49;99379.91;;;7.97;100.00
60832;BME280;46665;51.558;-0.448;2023-04-01T01:42:37;99371.38;;;7.90;100.00
60832;BME280;46665;51.558;-0.448;2023-04-01T01:45:23;99382.28;;;7.85;100.00
60832;BME280;46665;51.558;-0.448;2023-04-01T01:48:10;99376.19;;;7.74;100.00
60832;BME280;46665;51.558;-0.448;2023-04-01T01:50:54;99380.28;;;7.72;100.00
60832;BME280;46665;51.558;-0.448;2023-04-01T01:53:39;99392.25;;;7.71;100.00
60832;BME280;46665;51.558;-0.448;2023-04-01T01:56:25;99395.22;;;7.69;100.00
60832;BME280;46665;51.558;-0.448;2023-04-01T01:59:12;99392.59;;;7.64;100.00
60832;BME280;46665;51.558;-0.448;2023-04-01T02:01:58;99400.16;;;7.67;100.00
60832;BME280;46665;51.558;-0.448;2023-04-01T02:04:45;99398.53;;;7.66;100.00
60832;BME280;46665;51.558;-0.448;2023-04-01T02:07:32;99401.53;;;7.65;100.00
60832;BME280;46665;51.558;-0.448;2023-04-01T02:10:18;99402.63;;;7.64;100.00
60832;BME280;46665;51.558;-0.448;2023-04-01T02:13:11;99416.22;;;7.58;100.00
60832;BME280;46665;51.558;-0.448;2023-04-01T02:16:01;99418.94;;;7.58;100.00
60832;BME280;46665;51.558;-0.448;2023-04-01T02:18:48;99423.56;;;7.58;100.00
60832;BME280;46665;51.558;-0.448;2023-04-01T02:21:36;99413.00;;;7.56;100.00
60832;BME280;46665;51.558;-0.448;2023-04-01T02:24:23;99421.63;;;7.58;100.00
60832;BME280;46665;51.558;-0.448;2023-04-01T02:27:10;99419.72;;;7.59;100.00
60832;BME280;46665;51.558;-0.448;2023-04-01T02:29:55;99426.78;;;7.60;100.00
60832;BME280;46665;51.558;-0.448;2023-04-01T02:32:39;99431.66;;;7.58;100.00
60832;BME280;46665;51.558;-0.448;2023-04-01T02:35:23;99419.28;;;7.52;100.00
60832;BME280;46665;51.558;-0.448;2023-04-01T02:38:07;99435.47;;;7.57;100.00
60832;BME280;46665;51.558;-0.448;2023-04-01T02:40:58;99443.38;;;7.53;100.00
60832;BME280;46665;51.558;-0.448;2023-04-01T02:43:42;99440.88;;;7.57;100.00
60832;BME280;46665;51.558;-0.448;2023-04-01T02:46:26;99440.72;;;7.48;100.00
60832;BME280;46665;51.558;-0.448;2023-04-01T02:49:10;99453.38;;;7.53;100.00
60832;BME280;46665;51.558;-0.448;2023-04-01T02:51:54;99447.19;;;7.52;100.00
60832;BME280;46665;51.558;-0.448;2023-04-01T02:54:38;99458.81;;;7.53;100.00
60832;BME280;46665;51.558;-0.448;2023-04-01T02:57:23;99445.84;;;7.50;100.00
60832;BME280;46665;51.558;-0.448;2023-04-01T03:00:08;99450.38;;;7.54;100.00
60832;BME280;46665;51.558;-0.448;2023-04-01T03:02:55;99450.44;;;7.49;100.00
60832;BME280;46665;51.558;-0.448;2023-04-01T03:05:40;99452.06;;;7.50;100.00
60832;BME280;46665;51.558;-0.448;2023-04-01T03:08:24;99451.56;;;7.48;100.00
60832;BME280;46665;51.558;-0.448;2023-04-01T03:11:09;99470.22;;;7.50;100.00
60832;BME280;46665;51.558;-0.448;2023-04-01T03:13:53;99454.53;;;7.47;100.00
60832;BME280;46665;51.558;-0.448;2023-04-01T03:16:37;99468.06;;;7.47;100.00
60832;BME280;46665;51.558;-0.448;2023-04-01T03:19:21;99468.91;;;7.47;100.00
60832;BME280;46665;51.558;-0.448;2023-04-01T03:22:05;99475.63;;;7.50;100.00
60832;BME280;46665;51.558;-0.448;2023-04-01T03:24:49;99479.94;;;7.51;100.00
60832;BME280;46665;51.558;-0.448;2023-04-01T03:27:34;99478.09;;;7.46;100.00
60832;BME280;46665;51.558;-0.448;2023-04-01T03:30:21;99474.88;;;7.44;100.00
60832;BME280;46665;51.558;-0.448;2023-04-01T03:33:06;99480.28;;;7.44;100.00
60832;BME280;46665;51.558;-0.448;2023-04-01T03:35:50;99483.81;;;7.45;100.00
60832;BME280;46665;51.558;-0.448;2023-04-01T03:38:36;99482.72;;;7.46;100.00
60832;BME280;46665;51.558;-0.448;2023-04-01T03:41:19;99491.03;;;7.49;100.00
60832;BME280;46665;51.558;-0.448;2023-04-01T03:44:04;99489.97;;;7.50;100.00
60832;BME280;46665;51.558;-0.448;2023-04-01T03:46:48;99496.75;;;7.48;100.00
60832;BME280;46665;51.558;-0.448;2023-04-01T03:49:32;99490.03;;;7.45;100.00
60832;BME280;46665;51.558;-0.448;2023-04-01T03:52:17;99495.66;;;7.49;100.00
60832;BME280;46665;51.558;-0.448;2023-04-01T03:55:01;99507.88;;;7.46;100.00
60832;BME280;46665;51.558;-0.448;2023-04-01T03:57:45;99501.44;;;7.42;100.00
60832;BME280;46665;51.558;-0.448;2023-04-01T04:00:30;99514.66;;;7.44;100.00
60832;BME280;46665;51.558;-0.448;2023-04-01T04:03:14;99510.34;;;7.43;100.00
60832;BME280;46665;51.558;-0.448;2023-04-01T04:05:58;99520.38;;;7.42;100.00
60832;BME280;46665;51.558;-0.448;2023-04-01T04:08:42;99521.75;;;7.40;100.00
60832;BME280;46665;51.558;-0.448;2023-04-01T04:11:26;99527.44;;;7.38;100.00
60832;BME280;46665;51.558;-0.448;2023-04-01T04:14:10;99525.31;;;7.35;100.00
60832;BME280;46665;51.558;-0.448;2023-04-01T04:16:55;99520.25;;;7.28;100.00
60832;BME280;46665;51.558;-0.448;2023-04-01T04:19:38;99537.81;;;7.31;100.00
60832;BME280;46665;51.558;-0.448;2023-04-01T04:22:22;99534.28;;;7.30;100.00
60832;BME280;46665;51.558;-0.448;2023-04-01T04:25:07;99553.56;;;7.24;100.00
60832;BME280;46665;51.558;-0.448;2023-04-01T04:27:51;99550.63;;;7.20;100.00
60832;BME280;46665;51.558;-0.448;2023-04-01T04:30:35;99552.53;;;7.20;100.00
60832;BME280;46665;51.558;-0.448;2023-04-01T04:33:19;99550.41;;;7.16;100.00
60832;BME280;46665;51.558;-0.448;2023-04-01T04:36:04;99557.41;;;7.18;100.00
60832;BME280;46665;51.558;-0.448;2023-04-01T04:38:48;99563.41;;;7.14;100.00
60832;BME280;46665;51.558;-0.448;2023-04-01T04:41:32;99566.91;;;7.15;100.00
60832;BME280;46665;51.558;-0.448;2023-04-01T04:44:16;99566.44;;;7.08;100.00
60832;BME280;46665;51.558;-0.448;2023-04-01T04:47:00;99569.66;;;7.10;100.00
60832;BME280;46665;51.558;-0.448;2023-04-01T04:49:44;99571.84;;;7.08;100.00
60832;BME280;46665;51.558;-0.448;2023-04-01T04:52:28;99576.41;;;7.12;100.00
60832;BME280;46665;51.558;-0.448;2023-04-01T04:55:12;99580.97;;;7.17;100.00
60832;BME280;46665;51.558;-0.448;2023-04-01T04:57:56;99582.88;;;7.16;100.00
60832;BME280;46665;51.558;-0.448;2023-04-01T05:00:40;99575.59;;;7.12;100.00
60832;BME280;46665;51.558;-0.448;2023-04-01T05:03:24;99579.13;;;7.12;100.00
60832;BME280;46665;51.558;-0.448;2023-04-01T05:06:09;99584.78;;;7.11;100.00
60832;BME280;46665;51.558;-0.448;2023-04-01T05:08:54;99587.28;;;7.07;100.00
60832;BME280;46665;51.558;-0.448;2023-04-01T05:11:38;99589.19;;;7.07;100.00
60832;BME280;46665;51.558;-0.448;2023-04-01T05:14:22;99597.28;;;7.07;100.00
60832;BME280;46665;51.558;-0.448;2023-04-01T05:17:10;99598.66;;;7.04;100.00
60832;BME280;46665;51.558;-0.448;2023-04-01T05:19:54;99607.84;;;7.03;100.00
60832;BME280;46665;51.558;-0.448;2023-04-01T05:22:39;99605.50;;;6.97;100.00
60832;BME280;46665;51.558;-0.448;2023-04-01T05:25:23;99604.97;;;6.94;100.00
60832;BME280;46665;51.558;-0.448;2023-04-01T05:28:08;99607.13;;;6.92;100.00
60832;BME280;46665;51.558;-0.448;2023-04-01T05:30:52;99616.66;;;6.85;100.00
60832;BME280;46665;51.558;-0.448;2023-04-01T05:33:36;99611.84;;;6.77;100.00
60832;BME280;46665;51.558;-0.448;2023-04-01T05:36:21;99618.03;;;6.82;100.00
60832;BME280;46665;51.558;-0.448;2023-04-01T05:39:05;99627.75;;;6.83;100.00
60832;BME280;46665;51.558;-0.448;2023-04-01T05:41:49;99635.56;;;6.85;100.00
60832;BME280;46665;51.558;-0.448;2023-04-01T05:44:34;99627.47;;;6.85;100.00
60832;BME280;46665;51.558;-0.448;2023-04-01T05:47:18;99633.47;;;6.77;100.00
60832;BME280;46665;51.558;-0.448;2023-04-01T05:50:03;99636.75;;;6.73;100.00
60832;BME280;46665;51.558;-0.448;2023-04-01T05:52:47;99654.03;;;6.72;100.00
60832;BME280;46665;51.558;-0.448;2023-04-01T05:55:31;99651.63;;;6.71;100.00
60832;BME280;46665;51.558;-0.448;2023-04-01T05:58:15;99654.63;;;6.64;100.00
60832;BME280;46665;51.558;-0.448;2023-04-01T06:01:07;99653.81;;;6.69;100.00
60832;BME280;46665;51.558;-0.448;2023-04-01T06:03:51;99662.16;;;6.72;100.00
60832;BME280;46665;51.558;-0.448;2023-04-01T06:06:35;99659.19;;;6.74;100.00
60832;BME280;46665;51.558;-0.448;2023-04-01T06:09:26;99661.59;;;6.76;100.00
60832;BME280;46665;51.558;-0.448;2023-04-01T06:24:43;99681.00;;;6.83;100.00
60832;BME280;46665;51.558;-0.448;2023-04-01T06:28:07;99681.81;;;6.83;100.00
60832;BME280;46665;51.558;-0.448;2023-04-01T06:30:48;99687.50;;;6.87;100.00
60832;BME280;46665;51.558;-0.448;2023-04-01T06:49:29;99703.41;;;6.88;100.00
60832;BME280;46665;51.558;-0.448;2023-04-01T06:55:30;99708.03;;;6.88;100.00
60832;BME280;46665;51.558;-0.448;2023-04-01T06:58:30;99716.13;;;6.88;100.00
60832;BME280;46665;51.558;-0.448;2023-04-01T07:01:23;99716.13;;;6.93;100.00
60832;BME280;46665;51.558;-0.448;2023-04-01T07:04:16;99712.00;;;7.01;100.00
60832;BME280;46665;51.558;-0.448;2023-04-01T07:10:20;99733.31;;;7.12;100.00
60832;BME280;46665;51.558;-0.448;2023-04-01T07:13:12;99733.03;;;7.14;100.00
60832;BME280;46665;51.558;-0.448;2023-04-01T07:22:34;99748.47;;;7.08;100.00
60832;BME280;46665;51.558;-0.448;2023-04-01T07:25:23;99756.03;;;7.11;100.00
60832;BME280;46665;51.558;-0.448;2023-04-01T07:28:13;99755.78;;;7.08;100.00
60832;BME280;46665;51.558;-0.448;2023-04-01T07:34:25;99754.53;;;6.90;100.00
60832;BME280;46665;51.558;-0.448;2023-04-01T07:37:14;99758.00;;;7.01;100.00
60832;BME280;46665;51.558;-0.448;2023-04-01T07:54:42;99782.88;;;7.03;100.00
60832;BME280;46665;51.558;-0.448;2023-04-01T08:00:30;99805.81;;;7.15;100.00
60832;BME280;46665;51.558;-0.448;2023-04-01T08:06:43;99806.94;;;7.04;100.00
60832;BME280;46665;51.558;-0.448;2023-04-01T08:09:40;99805.06;;;7.00;100.00
60832;BME280;46665;51.558;-0.448;2023-04-01T08:22:01;99823.66;;;7.11;100.00
60832;BME280;46665;51.558;-0.448;2023-04-01T08:24:49;99824.22;;;7.08;100.00
60832;BME280;46665;51.558;-0.448;2023-04-01T08:27:37;99830.72;;;7.12;100.00
60832;BME280;46665;51.558;-0.448;2023-04-01T08:33:28;99836.34;;;7.21;100.00
60832;BME280;46665;51.558;-0.448;2023-04-01T08:36:31;99843.06;;;7.29;100.00
60832;BME280;46665;51.558;-0.448;2023-04-01T08:39:20;99843.13;;;7.19;100.00
60832;BME280;46665;51.558;-0.448;2023-04-01T09:00:31;99885.38;;;7.14;100.00
60832;BME280;46665;51.558;-0.448;2023-04-01T09:09:20;99895.84;;;7.26;100.00
60832;BME280;46665;51.558;-0.448;2023-04-01T09:12:12;99898.81;;;7.35;100.00
60832;BME280;46665;51.558;-0.448;2023-04-01T09:27:44;99922.97;;;7.11;100.00
60832;BME280;46665;51.558;-0.448;2023-04-01T09:46:21;99937.00;;;7.23;100.00
60832;BME280;46665;51.558;-0.448;2023-04-01T09:52:33;99941.13;;;7.05;100.00
60832;BME280;46665;51.558;-0.448;2023-04-01T10:35:44;99998.66;;;7.31;100.00
60832;BME280;46665;51.558;-0.448;2023-04-01T11:04:51;100045.38;;;7.73;100.00
60832;BME280;46665;51.558;-0.448;2023-04-01T11:11:11;100041.84;;;7.82;100.00
60832;BME280;46665;51.558;-0.448;2023-04-01T11:17:20;100041.28;;;7.86;100.00
60832;BME280;46665;51.558;-0.448;2023-04-01T11:33:28;100061.09;;;8.75;100.00
60832;BME280;46665;51.558;-0.448;2023-04-01T11:42:49;100085.28;;;8.72;100.00
60832;BME280;46665;51.558;-0.448;2023-04-01T11:45:53;100083.28;;;8.82;100.00
60832;BME280;46665;51.558;-0.448;2023-04-01T11:57:51;100121.88;;;8.74;100.00
60832;BME280;46665;51.558;-0.448;2023-04-01T12:10:21;100137.31;;;8.79;100.00
60832;BME280;46665;51.558;-0.448;2023-04-01T12:13:44;100145.75;;;8.72;100.00
60832;BME280;46665;51.558;-0.448;2023-04-01T12:19:52;100142.13;;;8.87;100.00
60832;BME280;46665;51.558;-0.448;2023-04-01T12:22:49;100149.44;;;8.92;100.00
60832;BME280;46665;51.558;-0.448;2023-04-01T12:35:39;100167.19;;;8.74;100.00
60832;BME280;46665;51.558;-0.448;2023-04-01T12:42:31;100171.56;;;9.09;100.00
60832;BME280;46665;51.558;-0.448;2023-04-01T12:45:12;100172.69;;;9.03;100.00
60832;BME280;46665;51.558;-0.448;2023-04-01T12:58:18;100209.22;;;8.76;100.00
60832;BME280;46665;51.558;-0.448;2023-04-01T13:04:33;100210.66;;;9.08;100.00
60832;BME280;46665;51.558;-0.448;2023-04-01T13:16:37;100237.81;;;9.03;100.00
60832;BME280;46665;51.558;-0.448;2023-04-01T13:19:35;100233.31;;;8.83;100.00
60832;BME280;46665;51.558;-0.448;2023-04-01T13:22:41;100246.94;;;8.73;100.00
60832;BME280;46665;51.558;-0.448;2023-04-01T13:28:29;100245.09;;;8.58;100.00
60832;BME280;46665;51.558;-0.448;2023-04-01T13:31:40;100247.59;;;8.44;100.00
60832;BME280;46665;51.558;-0.448;2023-04-01T13:43:26;100269.53;;;8.48;100.00
60832;BME280;46665;51.558;-0.448;2023-04-01T14:01:28;100289.31;;;8.38;100.00
60832;BME280;46665;51.558;-0.448;2023-04-01T14:07:56;100298.28;;;8.54;100.00
60832;BME280;46665;51.558;-0.448;2023-04-01T14:10:59;100301.00;;;8.54;100.00
60832;BME280;46665;51.558;-0.448;2023-04-01T14:23:21;100319.97;;;8.59;100.00
60832;BME280;46665;51.558;-0.448;2023-04-01T14:32:33;100341.34;;;8.71;100.00
60832;BME280;46665;51.558;-0.448;2023-04-01T14:35:28;100354.09;;;8.70;100.00
60832;BME280;46665;51.558;-0.448;2023-04-01T14:38:35;100355.72;;;8.71;100.00
60832;BME280;46665;51.558;-0.448;2023-04-01T14:47:54;100374.22;;;8.49;100.00
60832;BME280;46665;51.558;-0.448;2023-04-01T14:50:47;100368.78;;;8.49;100.00
60832;BME280;46665;51.558;-0.448;2023-04-01T14:53:38;100378.28;;;8.51;100.00
60832;BME280;46665;51.558;-0.448;2023-04-01T14:56:41;100381.78;;;8.57;100.00
60832;BME280;46665;51.558;-0.448;2023-04-01T14:59:28;100388.28;;;8.56;100.00
60832;BME280;46665;51.558;-0.448;2023-04-01T15:15:14;100402.41;;;8.42;100.00
60832;BME280;46665;51.558;-0.448;2023-04-01T15:27:20;100433.84;;;8.38;100.00
60832;BME280;46665;51.558;-0.448;2023-04-01T15:36:16;100444.69;;;8.28;100.00
60832;BME280;46665;51.558;-0.448;2023-04-01T15:42:02;100456.34;;;8.29;100.00
60832;BME280;46665;51.558;-0.448;2023-04-01T15:48:06;100462.31;;;8.25;100.00
60832;BME280;46665;51.558;-0.448;2023-04-01T15:51:12;100467.44;;;8.27;100.00
60832;BME280;46665;51.558;-0.448;2023-04-01T15:54:23;100468.53;;;8.26;100.00
60832;BME280;46665;51.558;-0.448;2023-04-01T16:04:17;100490.22;;;8.26;100.00
60832;BME280;46665;51.558;-0.448;2023-04-01T16:10:19;100502.69;;;8.27;100.00
60832;BME280;46665;51.558;-0.448;2023-04-01T16:22:26;100510.81;;;8.32;100.00
60832;BME280;46665;51.558;-0.448;2023-04-01T16:25:36;100517.59;;;8.30;100.00
60832;BME280;46665;51.558;-0.448;2023-04-01T16:31:53;100528.19;;;8.31;100.00
60832;BME280;46665;51.558;-0.448;2023-04-01T16:34:41;100534.41;;;8.32;100.00
60832;BME280;46665;51.558;-0.448;2023-04-01T16:46:26;100552.28;;;8.28;100.00
60832;BME280;46665;51.558;-0.448;2023-04-01T16:52:11;100562.88;;;8.24;100.00
60832;BME280;46665;51.558;-0.448;2023-04-01T16:55:18;100573.16;;;8.22;100.00
60832;BME280;46665;51.558;-0.448;2023-04-01T16:58:03;100578.03;;;8.20;100.00
60832;BME280;46665;51.558;-0.448;2023-04-01T17:00:55;100584.28;;;8.20;100.00
60832;BME280;46665;51.558;-0.448;2023-04-01T17:03:50;100591.59;;;8.25;100.00
60832;BME280;46665;51.558;-0.448;2023-04-01T17:25:02;100610.84;;;8.23;100.00
60832;BME280;46665;51.558;-0.448;2023-04-01T17:34:00;100636.28;;;8.12;100.00
60832;BME280;46665;51.558;-0.448;2023-04-01T17:45:54;100665.25;;;8.07;100.00
60832;BME280;46665;51.558;-0.448;2023-04-01T17:52:04;100676.09;;;8.07;100.00
60832;BME280;46665;51.558;-0.448;2023-04-01T17:55:21;100687.50;;;8.09;100.00
60832;BME280;46665;51.558;-0.448;2023-04-01T17:58:20;100690.47;;;8.07;100.00
60832;BME280;46665;51.558;-0.448;2023-04-01T18:01:25;100691.81;;;8.04;100.00
60832;BME280;46665;51.558;-0.448;2023-04-01T18:07:35;100704.53;;;8.04;100.00
60832;BME280;46665;51.558;-0.448;2023-04-01T18:10:34;100705.88;;;8.01;100.00
60832;BME280;46665;51.558;-0.448;2023-04-01T18:22:43;100726.19;;;7.99;100.00
60832;BME280;46665;51.558;-0.448;2023-04-01T18:25:35;100726.19;;;7.99;100.00
60832;BME280;46665;51.558;-0.448;2023-04-01T18:31:15;100741.59;;;7.93;100.00
60832;BME280;46665;51.558;-0.448;2023-04-01T18:37:31;100742.13;;;7.90;100.00
60832;BME280;46665;51.558;-0.448;2023-04-01T18:43:39;100760.28;;;7.95;100.00
60832;BME280;46665;51.558;-0.448;2023-04-01T18:46:31;100767.88;;;7.93;100.00
60832;BME280;46665;51.558;-0.448;2023-04-01T18:52:20;100780.34;;;7.94;100.00
60832;BME280;46665;51.558;-0.448;2023-04-01T18:58:06;100789.56;;;7.93;100.00
60832;BME280;46665;51.558;-0.448;2023-04-01T19:07:19;100798.50;;;7.93;100.00
60832;BME280;46665;51.558;-0.448;2023-04-01T19:10:24;100814.50;;;7.95;100.00
60832;BME280;46665;51.558;-0.448;2023-04-01T19:16:28;100824.50;;;7.94;100.00
60832;BME280;46665;51.558;-0.448;2023-04-01T19:19:21;100822.38;;;7.96;100.00
60832;BME280;46665;51.558;-0.448;2023-04-01T19:22:51;100831.06;;;7.98;100.00
60832;BME280;46665;51.558;-0.448;2023-04-01T19:25:57;100838.38;;;7.98;100.00
60832;BME280;46665;51.558;-0.448;2023-04-01T19:28:56;100841.91;;;7.98;100.00
60832;BME280;46665;51.558;-0.448;2023-04-01T19:41:12;100866.50;;;7.92;100.00
60832;BME280;46665;51.558;-0.448;2023-04-01T19:49:52;100875.97;;;7.89;100.00
60832;BME280;46665;51.558;-0.448;2023-04-01T19:52:40;100880.00;;;7.87;100.00
60832;BME280;46665;51.558;-0.448;2023-04-01T19:55:44;100894.34;;;7.87;100.00
60832;BME280;46665;51.558;-0.448;2023-04-01T19:58:33;100887.03;;;7.82;100.00
60832;BME280;46665;51.558;-0.448;2023-04-01T20:01:33;100901.91;;;7.80;100.00
60832;BME280;46665;51.558;-0.448;2023-04-01T20:07:27;100918.81;;;7.65;100.00
60832;BME280;46665;51.558;-0.448;2023-04-01T20:13:56;100922.72;;;7.52;100.00
60832;BME280;46665;51.558;-0.448;2023-04-01T20:19:50;100927.75;;;7.44;100.00
60832;BME280;46665;51.558;-0.448;2023-04-01T20:25:43;100937.78;;;7.43;100.00
60832;BME280;46665;51.558;-0.448;2023-04-01T20:31:30;100960.00;;;7.45;100.00
60832;BME280;46665;51.558;-0.448;2023-04-01T20:34:40;100962.38;;;7.42;100.00
60832;BME280;46665;51.558;-0.448;2023-04-01T20:40:34;100971.53;;;7.35;100.00
60832;BME280;46665;51.558;-0.448;2023-04-01T20:43:31;100973.94;;;7.32;100.00
60832;BME280;46665;51.558;-0.448;2023-04-01T20:46:27;100986.16;;;7.34;100.00
60832;BME280;46665;51.558;-0.448;2023-04-01T20:49:51;100994.56;;;7.38;100.00
60832;BME280;46665;51.558;-0.448;2023-04-01T20:53:12;101007.53;;;7.36;100.00
60832;BME280;46665;51.558;-0.448;2023-04-01T21:02:42;101020.03;;;7.37;100.00
60832;BME280;46665;51.558;-0.448;2023-04-01T21:12:21;101025.97;;;7.39;100.00
60832;BME280;46665;51.558;-0.448;2023-04-01T21:15:21;101027.31;;;7.36;100.00
60832;BME280;46665;51.558;-0.448;2023-04-01T21:31:00;101063.50;;;7.30;100.00
60832;BME280;46665;51.558;-0.448;2023-04-01T21:47:13;101078.72;;;7.14;100.00
60832;BME280;46665;51.558;-0.448;2023-04-01T22:11:07;101117.97;;;7.00;100.00
60832;BME280;46665;51.558;-0.448;2023-04-01T22:14:19;101124.78;;;7.03;100.00
60832;BME280;46665;51.558;-0.448;2023-04-01T22:17:23;101123.41;;;7.00;100.00
60832;BME280;46665;51.558;-0.448;2023-04-01T22:29:09;101137.34;;;6.92;100.00
60832;BME280;46665;51.558;-0.448;2023-04-01T22:32:08;101147.66;;;6.95;100.00
60832;BME280;46665;51.558;-0.448;2023-04-01T22:38:07;101158.97;;;6.92;100.00
60832;BME280;46665;51.558;-0.448;2023-04-01T22:43:56;101165.69;;;6.89;100.00
60832;BME280;46665;51.558;-0.448;2023-04-01T22:46:53;101165.22;;;6.92;100.00
60832;BME280;46665;51.558;-0.448;2023-04-01T22:50:07;101172.50;;;6.92;100.00
60832;BME280;46665;51.558;-0.448;2023-04-01T22:53:19;101171.69;;;6.91;100.00
60832;BME280;46665;51.558;-0.448;2023-04-01T22:56:11;101176.84;;;6.93;100.00
60832;BME280;46665;51.558;-0.448;2023-04-01T23:02:32;101177.34;;;6.90;100.00
60832;BME280;46665;51.558;-0.448;2023-04-01T23:05:18;101185.94;;;6.87;100.00
60832;BME280;46665;51.558;-0.448;2023-04-01T23:08:26;101198.16;;;6.89;100.00
60832;BME280;46665;51.558;-0.448;2023-04-01T23:11:16;101196.41;;;6.83;100.00
60832;BME280;46665;51.558;-0.448;2023-04-01T23:17:31;101218.63;;;6.85;100.00
60832;BME280;46665;51.558;-0.448;2023-04-01T23:20:32;101219.44;;;6.86;100.00
60832;BME280;46665;51.558;-0.448;2023-04-01T23:26:34;101224.22;;;6.79;100.00
60832;BME280;46665;51.558;-0.448;2023-04-01T23:29:23;101230.44;;;6.79;100.00
60832;BME280;46665;51.558;-0.448;2023-04-01T23:32:17;101225.75;;;6.75;100.00
60832;BME280;46665;51.558;-0.448;2023-04-01T23:35:02;101235.84;;;6.79;100.00
60832;BME280;46665;51.558;-0.448;2023-04-01T23:37:46;101236.34;;;6.76;100.00
60832;BME280;46665;51.558;-0.448;2023-04-01T23:40:30;101236.78;;;6.73;100.00
60832;BME280;46665;51.558;-0.448;2023-04-01T23:43:25;101242.19;;;6.73;100.00
60832;BME280;46665;51.558;-0.448;2023-04-01T23:46:12;101253.03;;;6.73;100.00
60832;BME280;46665;51.558;-0.448;2023-04-01T23:48:56;101251.38;;;6.72;100.00
60832;BME280;46665;51.558;-0.448;2023-04-01T23:51:50;101261.41;;;6.71;100.00
60832;BME280;46665;51.558;-0.448;2023-04-01T23:54:47;101244.22;;;6.66;100.00
60832;BME280;46665;51.558;-0.448;2023-04-01T23:57:34;101256.13;;;6.65;100.00
